Commodore Goodwill — C6NU8 — position and weather

sailwx.info

Track history (hours):
 
Tides and Currents Weather Stations Pressure Air Temp Water Temp Dewpoint Dewpoint Depression Visibility Wind Speed Wind Dir Waves Ship Positions

Commodore Goodwill

Operator: Condor Marine Services

Last reported at 2017-Jul-21 23:46 UTC. Time now 2017-Jul-22 12:43 UTC.
Position N 49°48' W 002°00'.

Length 126 m; draft 5.3 m.

Type: Ship (hazmat cat C). MMSI: 309536000.

Date/timePositionNaut miles runAvg speedWind from/ knotsBaromVisibWave heightAir tempDewpointWater temp
2017-Jul-21 23:46N 49°48' W 002°00'414.9
2017-Jul-21 23:30N 49°51' W 001°56'815.3
2017-Jul-21 23:00N 49°57' W 001°49'714.4
2017-Jul-21 22:30N 50°04' W 001°44'714.0
2017-Jul-21 22:00N 50°10' W 001°40'3212.9
2017-Jul-21 19:33N 50°35' W 001°09'212.0
2017-Jul-21 19:25N 50°37' W 001°08'512.6
2017-Jul-21 19:00N 50°41' W 001°03'713.8
2017-Jul-21 18:30N 50°47' W 001°06'2 3.3
2017-Jul-21 18:01N 50°49' W 001°06'0 0.0
2017-Jul-21 17:30N 50°49' W 001°06'0 0.0
2017-Jul-21 17:01N 50°49' W 001°06'0 0.0
2017-Jul-21 16:30N 50°49' W 001°06'0 0.0
2017-Jul-21 16:01N 50°49' W 001°06'0 0.5
2017-Jul-21 15:31N 50°49' W 001°06'4 8.8
2017-Jul-21 15:01N 50°44' W 001°04'713.8
2017-Jul-21 14:30N 50°38' W 001°03'3115.6
2017-Jul-21 12:31N 50°12' W 001°31'114.9
2017-Jul-21 12:27N 50°11' W 001°32'914.6
2017-Jul-21 11:48N 50°03' W 001°40'414.4
2017-Jul-21 11:31N 50°00' W 001°44'714.3
2017-Jul-21 11:01N 49°55' W 001°51'714.4
2017-Jul-21 10:30N 49°49' W 001°58'2 0.2
2017-Jul-20 23:43N 49°47' W 001°60'315.2
2017-Jul-20 23:30N 49°50' W 001°57'815.6
2017-Jul-20 23:00N 49°56' W 001°49'815.2
2017-Jul-20 22:30N 50°01' W 001°41'714.1
2017-Jul-20 22:00N 50°08' W 001°38'3414.6
2017-Jul-20 19:40N 50°36' W 001°08'614.0
2017-Jul-20 19:15N 50°41' W 001°03'415.3
2017-Jul-20 19:00N 50°45' W 001°05'4 8.4
2017-Jul-20 18:31N 50°49' W 001°06'0 0.2
2017-Jul-20 18:00N 50°49' W 001°06'0 0.0
2017-Jul-20 17:30N 50°49' W 001°06'0 0.0
2017-Jul-20 17:00N 50°49' W 001°06'0 0.0
2017-Jul-20 16:30N 50°49' W 001°06'0 0.0
2017-Jul-20 16:00N 50°49' W 001°06'0 0.0
2017-Jul-20 15:30N 50°49' W 001°06'4 7.5
2017-Jul-20 15:01N 50°45' W 001°05'4515.2
2017-Jul-20 12:04N 50°06' W 001°39'215.3
2017-Jul-20 11:56N 50°04' W 001°41'615.1
2017-Jul-20 11:30N 49°59' W 001°46'714.7
2017-Jul-20 11:01N 49°53' W 001°53'7 0.7
2017-Jul-19 23:41N 49°47' W 002°00'315.0
2017-Jul-19 23:30N 49°49' W 001°58'715.0
2017-Jul-19 23:00N 49°55' W 001°51'815.2
2017-Jul-19 22:30N 50°02' W 001°45'815.0
2017-Jul-19 22:00N 50°08' W 001°39'714.8
2017-Jul-19 21:30N 50°14' W 001°32'2615.0
2017-Jul-19 19:47N 50°35' W 001°09'716.4
2017-Jul-19 19:21N 50°41' W 001°03'516.1
2017-Jul-19 19:01N 50°46' W 001°06'2 4.7
2017-Jul-19 18:31N 50°49' W 001°06'0 0.0
2017-Jul-19 18:00N 50°49' W 001°06'0 0.0
2017-Jul-19 17:31N 50°49' W 001°06'0 0.0
2017-Jul-19 17:00N 50°49' W 001°06'0 0.0
2017-Jul-19 16:30N 50°49' W 001°06'0 0.0
2017-Jul-19 16:00N 50°49' W 001°06'0 0.0
2017-Jul-19 15:30N 50°49' W 001°06'2 4.0
2017-Jul-19 15:00N 50°47' W 001°06'714.4
2017-Jul-19 14:31N 50°40' W 001°01'4314.6
2017-Jul-19 11:35N 50°05' W 001°37'114.4
2017-Jul-19 11:30N 50°04' W 001°38'612.9
2017-Jul-19 11:00N 49°59' W 001°44'612.1
2017-Jul-19 10:30N 49°55' W 001°51'713.1
2017-Jul-19 10:01N 49°49' W 001°57'3 0.2
2017-Jul-18 23:18N 49°47' W 001°60'516.3
2017-Jul-18 23:00N 49°51' W 001°56'816.8
2017-Jul-18 22:30N 49°58' W 001°48'817.0
2017-Jul-18 22:00N 50°05' W 001°40'1016.0
2017-Jul-18 21:24N 50°13' W 001°33'614.8
2017-Jul-18 21:00N 50°18' W 001°28'815.0
2017-Jul-18 20:30N 50°25' W 001°22'1313.8
2017-Jul-18 19:32N 50°35' W 001°09'116.9
2017-Jul-18 19:30N 50°36' W 001°09'715.4
2017-Jul-18 19:00N 50°43' W 001°03'612.7
2017-Jul-18 18:31N 50°48' W 001°07'1 1.6
2017-Jul-18 18:01N 50°49' W 001°06'0 0.0
2017-Jul-18 17:30N 50°49' W 001°06'0 0.0
2017-Jul-18 17:01N 50°49' W 001°06'0 0.0
2017-Jul-18 16:31N 50°49' W 001°06'0 0.0
2017-Jul-18 16:00N 50°49' W 001°06'0 0.0
2017-Jul-18 15:30N 50°49' W 001°06'1 2.3
2017-Jul-18 15:01N 50°48' W 001°07'1413.6
2017-Jul-18 14:00N 50°34' W 001°09'1113.9
2017-Jul-18 13:15N 50°26' W 001°18'513.5
2017-Jul-18 12:51N 50°21' W 001°23'913.3
2017-Jul-18 12:08N 50°14' W 001°32'213.2
2017-Jul-18 12:00N 50°12' W 001°33'1212.8
2017-Jul-18 11:05N 50°03' W 001°44'314.7
2017-Jul-18 10:53N 50°00' W 001°46'616.1
2017-Jul-18 10:31N 49°55' W 001°52'815.9
2017-Jul-18 10:00N 49°49' W 001°59'1013.0
2017-Jul-18 09:16N 49°40' W 002°05'512.7
2017-Jul-18 08:54N 49°36' W 002°08'715.6
2017-Jul-18 08:28N 49°31' W 002°16'915.9
2017-Jul-18 07:52N 49°26' W 002°28'3 2.2
2017-Jul-18 06:27N 49°27' W 002°32'11 2.0
2017-Jul-18 01:03N 49°22' W 002°17'114.9
2017-Jul-18 01:00N 49°23' W 002°17'1115.1
2017-Jul-18 00:18N 49°33' W 002°11'815.2
2017-Jul-17 23:45N 49°40' W 002°05'915.1
2017-Jul-17 23:11N 49°48' W 001°59'415.0
2017-Jul-17 22:56N 49°51' W 001°56'715.5
2017-Jul-17 22:30N 49°56' W 001°50'815.4
2017-Jul-17 22:00N 50°02' W 001°43'714.9
2017-Jul-17 21:30N 50°08' W 001°36'715.0
2017-Jul-17 21:01N 50°15' W 001°30'815.2
2017-Jul-17 20:31N 50°21' W 001°24'815.5
2017-Jul-17 20:00N 50°27' W 001°15'815.9
2017-Jul-17 19:30N 50°33' W 001°08'817.1
2017-Jul-17 19:00N 50°40' W 001°01'714.9
2017-Jul-17 18:30N 50°47' W 001°06'2 3.6
2017-Jul-17 18:00N 50°49' W 001°06'0 0.0
2017-Jul-17 17:30N 50°49' W 001°06'0 0.0
2017-Jul-17 17:00N 50°49' W 001°06'0 0.0
2017-Jul-17 16:30N 50°49' W 001°06'0 0.0
2017-Jul-17 16:00N 50°49' W 001°06'0 0.0
2017-Jul-17 15:30N 50°49' W 001°06'1 2.5
2017-Jul-17 15:00N 50°48' W 001°07'714.3
2017-Jul-17 14:30N 50°41' W 001°03'815.4
2017-Jul-17 14:00N 50°35' W 001°10'1310.9
2017-Jul-17 12:47N 50°23' W 001°20'310.7
2017-Jul-17 12:30N 50°21' W 001°23'510.6
2017-Jul-17 12:00N 50°16' W 001°27'610.4
2017-Jul-17 11:24N 50°11' W 001°33'710.2
2017-Jul-17 10:44N 50°06' W 001°39'210.0
2017-Jul-17 10:29N 50°04' W 001°42'511.5
2017-Jul-17 10:00N 49°59' W 001°46'612.8
2017-Jul-17 09:30N 49°54' W 001°52'612.1
2017-Jul-17 09:00N 49°49' W 001°57'3011.3
2017-Jul-17 06:22N 49°26' W 002°26'4 3.9
2017-Jul-17 05:25N 49°27' W 002°32'19 4.3
2017-Jul-17 00:58N 49°10' W 002°18'2114.6
2017-Jul-16 23:31N 49°31' W 002°12'116.1
2017-Jul-16 23:29N 49°32' W 002°11'814.0
2017-Jul-16 22:57N 49°39' W 002°07'1012.6
2017-Jul-16 22:08N 49°48' W 001°59'111.3
2017-Jul-16 22:01N 49°49' W 001°58'612.2
2017-Jul-16 21:30N 49°54' W 001°52'713.6
2017-Jul-16 21:00N 49°59' W 001°46'815.0
2017-Jul-16 20:30N 50°05' W 001°40'917.0
2017-Jul-16 20:00N 50°12' W 001°32'3319.0
2017-Jul-16 18:14N 50°41' W 001°03'314.8
2017-Jul-16 18:00N 50°44' W 001°04'4 8.8
2017-Jul-16 17:30N 50°48' W 001°07'1 2.2
2017-Jul-16 17:00N 50°49' W 001°06'0 0.0
2017-Jul-16 16:30N 50°49' W 001°06'0 0.0
2017-Jul-16 16:00N 50°49' W 001°06'0 0.0
2017-Jul-16 15:30N 50°49' W 001°06'0 0.0
2017-Jul-16 15:00N 50°49' W 001°06'0 0.0
2017-Jul-16 14:30N 50°49' W 001°06'0 0.0
2017-Jul-16 14:00N 50°49' W 001°06'0 0.0
2017-Jul-16 13:30N 50°49' W 001°06'0 0.0
2017-Jul-16 13:00N 50°49' W 001°06'0 0.0
2017-Jul-16 12:30N 50°49' W 001°06'0 0.0
2017-Jul-16 12:00N 50°49' W 001°06'0 0.0
2017-Jul-16 11:30N 50°49' W 001°06'0 0.0
2017-Jul-16 11:00N 50°49' W 001°06'0 0.0
2017-Jul-16 10:30N 50°49' W 001°06'0 0.0
2017-Jul-16 10:00N 50°49' W 001°06'0 0.0
2017-Jul-16 09:30N 50°49' W 001°06'0 0.0
2017-Jul-16 09:01N 50°49' W 001°06'0 0.0
2017-Jul-16 08:31N 50°49' W 001°06'0 0.0
2017-Jul-16 08:00N 50°49' W 001°06'0 0.0
2017-Jul-16 07:31N 50°49' W 001°06'0 0.0
2017-Jul-16 07:00N 50°49' W 001°06'0 0.0
2017-Jul-16 06:30N 50°49' W 001°06'0 0.0
2017-Jul-16 06:00N 50°49' W 001°06'0 0.0
2017-Jul-16 05:30N 50°49' W 001°06'0 0.0
2017-Jul-16 05:00N 50°49' W 001°06'2 3.5
2017-Jul-16 04:31N 50°47' W 001°06'714.0
2017-Jul-16 04:00N 50°40' W 001°04'3411.5
2017-Jul-16 01:06N 50°13' W 001°34'110.5
2017-Jul-16 00:59N 50°12' W 001°35'510.8
2017-Jul-16 00:31N 50°07' W 001°39'611.2
2017-Jul-16 00:00N 50°03' W 001°44'612.0
2017-Jul-15 23:30N 49°57' W 001°49'612.7
2017-Jul-15 23:00N 49°52' W 001°54'66 8.2
2017-Jul-15 14:58N 48°47' W 002°11'9 9.8
2017-Jul-15 14:01N 48°39' W 002°03'1 0.3
2017-Jul-15 11:01N 48°38' W 002°02'0 1.8
2017-Jul-15 11:01N 48°38' W 002°02'612.0
2017-Jul-15 10:28N 48°44' W 002°05'917.5
2017-Jul-15 09:59N 48°52' W 001°59'916.8
2017-Jul-15 09:28N 49°00' W 001°55'817.9
2017-Jul-15 09:00N 49°07' W 002°03'5 1.8
2017-Jul-15 06:22N 49°11' W 002°07'511.0
2017-Jul-15 05:58N 49°10' W 002°14'6 9.1
2017-Jul-15 05:19N 49°13' W 002°21'37 6.2
2017-Jul-14 23:22N 49°47' W 002°00'412.4
2017-Jul-14 23:00N 49°51' W 001°56'713.1
2017-Jul-14 22:30N 49°56' W 001°50'713.7
2017-Jul-14 22:00N 50°01' W 001°43'816.1
2017-Jul-14 21:31N 50°08' W 001°36'816.5
2017-Jul-14 21:00N 50°15' W 001°28'917.0
2017-Jul-14 20:29N 50°22' W 001°20'817.2
2017-Jul-14 20:00N 50°29' W 001°13'917.7
2017-Jul-14 19:30N 50°36' W 001°05'815.6
2017-Jul-14 19:01N 50°43' W 001°02'611.5
2017-Jul-14 18:30N 50°49' W 001°06'0 0.4
2017-Jul-14 18:00N 50°49' W 001°06'0 0.0
2017-Jul-14 17:31N 50°49' W 001°06'0 0.0
2017-Jul-14 17:00N 50°49' W 001°06'0 0.0
2017-Jul-14 16:31N 50°49' W 001°06'0 0.0
2017-Jul-14 16:00N 50°49' W 001°06'0 0.0
2017-Jul-14 15:30N 50°49' W 001°06'1 2.6
2017-Jul-14 15:00N 50°48' W 001°07'714.0
2017-Jul-14 14:30N 50°41' W 001°03'1616.0
2017-Jul-14 13:31N 50°28' W 001°16'114.7
2017-Jul-14 13:26N 50°27' W 001°17'1914.9
2017-Jul-14 12:10N 50°10' W 001°32'215.0
2017-Jul-14 12:00N 50°08' W 001°34'815.3
2017-Jul-14 11:30N 50°02' W 001°40'1020.0
2017-Jul-14 11:00N 49°54' W 001°50'46 8.5
2017-Jul-14 05:36N 49°10' W 002°07'37 7.1
2017-Jul-14 00:23N 49°47' W 001°60'614.5
2017-Jul-14 00:00N 49°51' W 001°54'714.9
2017-Jul-13 23:30N 49°57' W 001°47'714.6
2017-Jul-13 23:00N 50°03' W 001°41'715.0
2017-Jul-13 22:30N 50°10' W 001°35'815.2
2017-Jul-13 22:00N 50°16' W 001°29'815.4
2017-Jul-13 21:30N 50°22' W 001°22'915.5
2017-Jul-13 20:56N 50°30' W 001°14'614.3
2017-Jul-13 20:30N 50°34' W 001°07'815.7
2017-Jul-13 20:00N 50°41' W 001°00'713.5
2017-Jul-13 19:31N 50°46' W 001°06'2 4.7
2017-Jul-13 19:00N 50°49' W 001°06'0 0.0
2017-Jul-13 18:30N 50°49' W 001°06'0 0.0
2017-Jul-13 18:00N 50°49' W 001°06'0 0.0
2017-Jul-13 17:30N 50°49' W 001°06'0 0.0
2017-Jul-13 17:00N 50°49' W 001°06'0 0.0
2017-Jul-13 16:30N 50°49' W 001°06'0 0.0
2017-Jul-13 16:00N 50°49' W 001°06'0 0.0
2017-Jul-13 15:30N 50°49' W 001°06'2 3.3
2017-Jul-13 15:01N 50°47' W 001°06'714.4
2017-Jul-13 14:30N 50°40' W 001°04'1014.2
2017-Jul-13 13:46N 50°31' W 001°12'415.8
2017-Jul-13 13:30N 50°27' W 001°16'917.8
2017-Jul-13 13:00N 50°20' W 001°24'816.0
2017-Jul-13 12:31N 50°14' W 001°32'815.3
2017-Jul-13 12:01N 50°08' W 001°38'816.4
2017-Jul-13 11:30N 50°00' W 001°45'1019.1
2017-Jul-13 11:00N 49°53' W 001°53'1221.6
2017-Jul-13 10:28N 49°43' W 002°04'1520.9
2017-Jul-13 09:43N 49°29' W 002°12'418.8
2017-Jul-13 09:30N 49°25' W 002°15'1119.9
2017-Jul-13 08:58N 49°15' W 002°21'35 3.8
2017-Jul-12 23:35N 49°47' W 001°59'114.6
2017-Jul-12 23:31N 49°48' W 001°57'714.4
2017-Jul-12 23:00N 49°53' W 001°49'714.7
2017-Jul-12 22:31N 49°58' W 001°42'815.0
2017-Jul-12 22:00N 50°05' W 001°37'714.3
2017-Jul-12 21:30N 50°11' W 001°31'815.5
2017-Jul-12 21:00N 50°17' W 001°24'815.9
2017-Jul-12 20:30N 50°24' W 001°17'1716.0
2017-Jul-12 19:26N 50°39' W 001°02'613.4
2017-Jul-12 19:01N 50°44' W 001°04'5 9.4
2017-Jul-12 18:30N 50°49' W 001°06'1 1.0
2017-Jul-12 18:00N 50°49' W 001°06'0 0.0
2017-Jul-12 17:30N 50°49' W 001°06'0 0.0
2017-Jul-12 17:00N 50°49' W 001°06'0 0.0
2017-Jul-12 16:30N 50°49' W 001°06'0 0.0
2017-Jul-12 16:00N 50°49' W 001°06'0 0.0
2017-Jul-12 15:30N 50°49' W 001°06'2 3.4
2017-Jul-12 15:01N 50°47' W 001°06'3613.2
2017-Jul-12 12:15N 50°14' W 001°30'814.5
2017-Jul-12 11:42N 50°08' W 001°39'314.4
2017-Jul-12 11:30N 50°06' W 001°41'714.5
2017-Jul-12 11:00N 49°60' W 001°46'714.9
2017-Jul-12 10:30N 49°53' W 001°52'8 0.7
2017-Jul-11 23:59N 49°48' W 002°00'  
Track history (hours):
 
Tides and Currents Weather Stations Pressure Air Temp Water Temp Dewpoint Dewpoint Depression Visibility Wind Speed Wind Dir Waves Ship Positions

Commodore Goodwill

Operator: Condor Marine Services

Last reported at 2017-Jul-21 23:46 UTC. Time now 2017-Jul-22 12:43 UTC.
Position N 49°48' W 002°00'.

Length 126 m; draft 5.3 m.

Type: Ship (hazmat cat C). MMSI: 309536000.

Date/timePositionNaut miles runAvg speedWind from/ knotsBaromVisibWave heightAir tempDewpointWater temp
2017-Jul-21 23:46N 49°48' W 002°00'414.9
2017-Jul-21 23:30N 49°51' W 001°56'815.3
2017-Jul-21 23:00N 49°57' W 001°49'714.4
2017-Jul-21 22:30N 50°04' W 001°44'714.0
2017-Jul-21 22:00N 50°10' W 001°40'3212.9
2017-Jul-21 19:33N 50°35' W 001°09'212.0
2017-Jul-21 19:25N 50°37' W 001°08'512.6
2017-Jul-21 19:00N 50°41' W 001°03'713.8
2017-Jul-21 18:30N 50°47' W 001°06'2 3.3
2017-Jul-21 18:01N 50°49' W 001°06'0 0.0
2017-Jul-21 17:30N 50°49' W 001°06'0 0.0
2017-Jul-21 17:01N 50°49' W 001°06'0 0.0
2017-Jul-21 16:30N 50°49' W 001°06'0 0.0
2017-Jul-21 16:01N 50°49' W 001°06'0 0.5
2017-Jul-21 15:31N 50°49' W 001°06'4 8.8
2017-Jul-21 15:01N 50°44' W 001°04'713.8
2017-Jul-21 14:30N 50°38' W 001°03'3115.6
2017-Jul-21 12:31N 50°12' W 001°31'114.9
2017-Jul-21 12:27N 50°11' W 001°32'914.6
2017-Jul-21 11:48N 50°03' W 001°40'414.4
2017-Jul-21 11:31N 50°00' W 001°44'714.3
2017-Jul-21 11:01N 49°55' W 001°51'714.4
2017-Jul-21 10:30N 49°49' W 001°58'2 0.2
2017-Jul-20 23:43N 49°47' W 001°60'315.2
2017-Jul-20 23:30N 49°50' W 001°57'815.6
2017-Jul-20 23:00N 49°56' W 001°49'815.2
2017-Jul-20 22:30N 50°01' W 001°41'714.1
2017-Jul-20 22:00N 50°08' W 001°38'3414.6
2017-Jul-20 19:40N 50°36' W 001°08'614.0
2017-Jul-20 19:15N 50°41' W 001°03'415.3
2017-Jul-20 19:00N 50°45' W 001°05'4 8.4
2017-Jul-20 18:31N 50°49' W 001°06'0 0.2
2017-Jul-20 18:00N 50°49' W 001°06'0 0.0
2017-Jul-20 17:30N 50°49' W 001°06'0 0.0
2017-Jul-20 17:00N 50°49' W 001°06'0 0.0
2017-Jul-20 16:30N 50°49' W 001°06'0 0.0
2017-Jul-20 16:00N 50°49' W 001°06'0 0.0
2017-Jul-20 15:30N 50°49' W 001°06'4 7.5
2017-Jul-20 15:01N 50°45' W 001°05'4515.2
2017-Jul-20 12:04N 50°06' W 001°39'215.3
2017-Jul-20 11:56N 50°04' W 001°41'615.1
2017-Jul-20 11:30N 49°59' W 001°46'714.7
2017-Jul-20 11:01N 49°53' W 001°53'7 0.7
2017-Jul-19 23:41N 49°47' W 002°00'315.0
2017-Jul-19 23:30N 49°49' W 001°58'715.0
2017-Jul-19 23:00N 49°55' W 001°51'815.2
2017-Jul-19 22:30N 50°02' W 001°45'815.0
2017-Jul-19 22:00N 50°08' W 001°39'714.8
2017-Jul-19 21:30N 50°14' W 001°32'2615.0
2017-Jul-19 19:47N 50°35' W 001°09'716.4
2017-Jul-19 19:21N 50°41' W 001°03'516.1
2017-Jul-19 19:01N 50°46' W 001°06'2 4.7
2017-Jul-19 18:31N 50°49' W 001°06'0 0.0
2017-Jul-19 18:00N 50°49' W 001°06'0 0.0
2017-Jul-19 17:31N 50°49' W 001°06'0 0.0
2017-Jul-19 17:00N 50°49' W 001°06'0 0.0
2017-Jul-19 16:30N 50°49' W 001°06'0 0.0
2017-Jul-19 16:00N 50°49' W 001°06'0 0.0
2017-Jul-19 15:30N 50°49' W 001°06'2 4.0
2017-Jul-19 15:00N 50°47' W 001°06'714.4
2017-Jul-19 14:31N 50°40' W 001°01'4314.6
2017-Jul-19 11:35N 50°05' W 001°37'114.4
2017-Jul-19 11:30N 50°04' W 001°38'612.9
2017-Jul-19 11:00N 49°59' W 001°44'612.1
2017-Jul-19 10:30N 49°55' W 001°51'713.1
2017-Jul-19 10:01N 49°49' W 001°57'3 0.2
2017-Jul-18 23:18N 49°47' W 001°60'516.3
2017-Jul-18 23:00N 49°51' W 001°56'816.8
2017-Jul-18 22:30N 49°58' W 001°48'817.0
2017-Jul-18 22:00N 50°05' W 001°40'1016.0
2017-Jul-18 21:24N 50°13' W 001°33'614.8
2017-Jul-18 21:00N 50°18' W 001°28'815.0
2017-Jul-18 20:30N 50°25' W 001°22'1313.8
2017-Jul-18 19:32N 50°35' W 001°09'116.9
2017-Jul-18 19:30N 50°36' W 001°09'715.4
2017-Jul-18 19:00N 50°43' W 001°03'612.7
2017-Jul-18 18:31N 50°48' W 001°07'1 1.6
2017-Jul-18 18:01N 50°49' W 001°06'0 0.0
2017-Jul-18 17:30N 50°49' W 001°06'0 0.0
2017-Jul-18 17:01N 50°49' W 001°06'0 0.0
2017-Jul-18 16:31N 50°49' W 001°06'0 0.0
2017-Jul-18 16:00N 50°49' W 001°06'0 0.0
2017-Jul-18 15:30N 50°49' W 001°06'1 2.3
2017-Jul-18 15:01N 50°48' W 001°07'1413.6
2017-Jul-18 14:00N 50°34' W 001°09'1113.9
2017-Jul-18 13:15N 50°26' W 001°18'513.5
2017-Jul-18 12:51N 50°21' W 001°23'913.3
2017-Jul-18 12:08N 50°14' W 001°32'213.2
2017-Jul-18 12:00N 50°12' W 001°33'1212.8
2017-Jul-18 11:05N 50°03' W 001°44'314.7
2017-Jul-18 10:53N 50°00' W 001°46'616.1
2017-Jul-18 10:31N 49°55' W 001°52'815.9
2017-Jul-18 10:00N 49°49' W 001°59'1013.0
2017-Jul-18 09:16N 49°40' W 002°05'512.7
2017-Jul-18 08:54N 49°36' W 002°08'715.6
2017-Jul-18 08:28N 49°31' W 002°16'915.9
2017-Jul-18 07:52N 49°26' W 002°28'3 2.2
2017-Jul-18 06:27N 49°27' W 002°32'11 2.0
2017-Jul-18 01:03N 49°22' W 002°17'114.9
2017-Jul-18 01:00N 49°23' W 002°17'1115.1
2017-Jul-18 00:18N 49°33' W 002°11'815.2
2017-Jul-17 23:45N 49°40' W 002°05'915.1
2017-Jul-17 23:11N 49°48' W 001°59'415.0
2017-Jul-17 22:56N 49°51' W 001°56'715.5
2017-Jul-17 22:30N 49°56' W 001°50'815.4
2017-Jul-17 22:00N 50°02' W 001°43'714.9
2017-Jul-17 21:30N 50°08' W 001°36'715.0
2017-Jul-17 21:01N 50°15' W 001°30'815.2
2017-Jul-17 20:31N 50°21' W 001°24'815.5
2017-Jul-17 20:00N 50°27' W 001°15'815.9
2017-Jul-17 19:30N 50°33' W 001°08'817.1
2017-Jul-17 19:00N 50°40' W 001°01'714.9
2017-Jul-17 18:30N 50°47' W 001°06'2 3.6
2017-Jul-17 18:00N 50°49' W 001°06'0 0.0
2017-Jul-17 17:30N 50°49' W 001°06'0 0.0
2017-Jul-17 17:00N 50°49' W 001°06'0 0.0
2017-Jul-17 16:30N 50°49' W 001°06'0 0.0
2017-Jul-17 16:00N 50°49' W 001°06'0 0.0
2017-Jul-17 15:30N 50°49' W 001°06'1 2.5
2017-Jul-17 15:00N 50°48' W 001°07'714.3
2017-Jul-17 14:30N 50°41' W 001°03'815.4
2017-Jul-17 14:00N 50°35' W 001°10'1310.9
2017-Jul-17 12:47N 50°23' W 001°20'310.7
2017-Jul-17 12:30N 50°21' W 001°23'510.6
2017-Jul-17 12:00N 50°16' W 001°27'610.4
2017-Jul-17 11:24N 50°11' W 001°33'710.2
2017-Jul-17 10:44N 50°06' W 001°39'210.0
2017-Jul-17 10:29N 50°04' W 001°42'511.5
2017-Jul-17 10:00N 49°59' W 001°46'612.8
2017-Jul-17 09:30N 49°54' W 001°52'612.1
2017-Jul-17 09:00N 49°49' W 001°57'3011.3
2017-Jul-17 06:22N 49°26' W 002°26'4 3.9
2017-Jul-17 05:25N 49°27' W 002°32'19 4.3
2017-Jul-17 00:58N 49°10' W 002°18'2114.6
2017-Jul-16 23:31N 49°31' W 002°12'116.1
2017-Jul-16 23:29N 49°32' W 002°11'814.0
2017-Jul-16 22:57N 49°39' W 002°07'1012.6
2017-Jul-16 22:08N 49°48' W 001°59'111.3
2017-Jul-16 22:01N 49°49' W 001°58'612.2
2017-Jul-16 21:30N 49°54' W 001°52'713.6
2017-Jul-16 21:00N 49°59' W 001°46'815.0
2017-Jul-16 20:30N 50°05' W 001°40'917.0
2017-Jul-16 20:00N 50°12' W 001°32'3319.0
2017-Jul-16 18:14N 50°41' W 001°03'314.8
2017-Jul-16 18:00N 50°44' W 001°04'4 8.8
2017-Jul-16 17:30N 50°48' W 001°07'1 2.2
2017-Jul-16 17:00N 50°49' W 001°06'0 0.0
2017-Jul-16 16:30N 50°49' W 001°06'0 0.0
2017-Jul-16 16:00N 50°49' W 001°06'0 0.0
2017-Jul-16 15:30N 50°49' W 001°06'0 0.0
2017-Jul-16 15:00N 50°49' W 001°06'0 0.0
2017-Jul-16 14:30N 50°49' W 001°06'0 0.0
2017-Jul-16 14:00N 50°49' W 001°06'0 0.0
2017-Jul-16 13:30N 50°49' W 001°06'0 0.0
2017-Jul-16 13:00N 50°49' W 001°06'0 0.0
2017-Jul-16 12:30N 50°49' W 001°06'0 0.0
2017-Jul-16 12:00N 50°49' W 001°06'0 0.0
2017-Jul-16 11:30N 50°49' W 001°06'0 0.0
2017-Jul-16 11:00N 50°49' W 001°06'0 0.0
2017-Jul-16 10:30N 50°49' W 001°06'0 0.0
2017-Jul-16 10:00N 50°49' W 001°06'0 0.0
2017-Jul-16 09:30N 50°49' W 001°06'0 0.0
2017-Jul-16 09:01N 50°49' W 001°06'0 0.0
2017-Jul-16 08:31N 50°49' W 001°06'0 0.0
2017-Jul-16 08:00N 50°49' W 001°06'0 0.0
2017-Jul-16 07:31N 50°49' W 001°06'0 0.0
2017-Jul-16 07:00N 50°49' W 001°06'0 0.0
2017-Jul-16 06:30N 50°49' W 001°06'0 0.0
2017-Jul-16 06:00N 50°49' W 001°06'0 0.0
2017-Jul-16 05:30N 50°49' W 001°06'0 0.0
2017-Jul-16 05:00N 50°49' W 001°06'2 3.5
2017-Jul-16 04:31N 50°47' W 001°06'714.0
2017-Jul-16 04:00N 50°40' W 001°04'3411.5
2017-Jul-16 01:06N 50°13' W 001°34'110.5
2017-Jul-16 00:59N 50°12' W 001°35'510.8
2017-Jul-16 00:31N 50°07' W 001°39'611.2
2017-Jul-16 00:00N 50°03' W 001°44'612.0
2017-Jul-15 23:30N 49°57' W 001°49'612.7
2017-Jul-15 23:00N 49°52' W 001°54'66 8.2
2017-Jul-15 14:58N 48°47' W 002°11'9 9.8
2017-Jul-15 14:01N 48°39' W 002°03'1 0.3
2017-Jul-15 11:01N 48°38' W 002°02'0 1.8
2017-Jul-15 11:01N 48°38' W 002°02'612.0
2017-Jul-15 10:28N 48°44' W 002°05'917.5
2017-Jul-15 09:59N 48°52' W 001°59'916.8
2017-Jul-15 09:28N 49°00' W 001°55'817.9
2017-Jul-15 09:00N 49°07' W 002°03'5 1.8
2017-Jul-15 06:22N 49°11' W 002°07'511.0
2017-Jul-15 05:58N 49°10' W 002°14'6 9.1
2017-Jul-15 05:19N 49°13' W 002°21'37 6.2
2017-Jul-14 23:22N 49°47' W 002°00'412.4
2017-Jul-14 23:00N 49°51' W 001°56'713.1
2017-Jul-14 22:30N 49°56' W 001°50'713.7
2017-Jul-14 22:00N 50°01' W 001°43'816.1
2017-Jul-14 21:31N 50°08' W 001°36'816.5
2017-Jul-14 21:00N 50°15' W 001°28'917.0
2017-Jul-14 20:29N 50°22' W 001°20'817.2
2017-Jul-14 20:00N 50°29' W 001°13'917.7
2017-Jul-14 19:30N 50°36' W 001°05'815.6
2017-Jul-14 19:01N 50°43' W 001°02'611.5
2017-Jul-14 18:30N 50°49' W 001°06'0 0.4
2017-Jul-14 18:00N 50°49' W 001°06'0 0.0
2017-Jul-14 17:31N 50°49' W 001°06'0 0.0
2017-Jul-14 17:00N 50°49' W 001°06'0 0.0
2017-Jul-14 16:31N 50°49' W 001°06'0 0.0
2017-Jul-14 16:00N 50°49' W 001°06'0 0.0
2017-Jul-14 15:30N 50°49' W 001°06'1 2.6
2017-Jul-14 15:00N 50°48' W 001°07'714.0
2017-Jul-14 14:30N 50°41' W 001°03'1616.0
2017-Jul-14 13:31N 50°28' W 001°16'114.7
2017-Jul-14 13:26N 50°27' W 001°17'1914.9
2017-Jul-14 12:10N 50°10' W 001°32'215.0
2017-Jul-14 12:00N 50°08' W 001°34'815.3
2017-Jul-14 11:30N 50°02' W 001°40'1020.0
2017-Jul-14 11:00N 49°54' W 001°50'46 8.5
2017-Jul-14 05:36N 49°10' W 002°07'37 7.1
2017-Jul-14 00:23N 49°47' W 001°60'614.5
2017-Jul-14 00:00N 49°51' W 001°54'714.9
2017-Jul-13 23:30N 49°57' W 001°47'714.6
2017-Jul-13 23:00N 50°03' W 001°41'715.0
2017-Jul-13 22:30N 50°10' W 001°35'815.2
2017-Jul-13 22:00N 50°16' W 001°29'815.4
2017-Jul-13 21:30N 50°22' W 001°22'915.5
2017-Jul-13 20:56N 50°30' W 001°14'614.3
2017-Jul-13 20:30N 50°34' W 001°07'815.7
2017-Jul-13 20:00N 50°41' W 001°00'713.5
2017-Jul-13 19:31N 50°46' W 001°06'2 4.7
2017-Jul-13 19:00N 50°49' W 001°06'0 0.0
2017-Jul-13 18:30N 50°49' W 001°06'0 0.0
2017-Jul-13 18:00N 50°49' W 001°06'0 0.0
2017-Jul-13 17:30N 50°49' W 001°06'0 0.0
2017-Jul-13 17:00N 50°49' W 001°06'0 0.0
2017-Jul-13 16:30N 50°49' W 001°06'0 0.0
2017-Jul-13 16:00N 50°49' W 001°06'0 0.0
2017-Jul-13 15:30N 50°49' W 001°06'2 3.3
2017-Jul-13 15:01N 50°47' W 001°06'714.4
2017-Jul-13 14:30N 50°40' W 001°04'1014.2
2017-Jul-13 13:46N 50°31' W 001°12'415.8
2017-Jul-13 13:30N 50°27' W 001°16'917.8
2017-Jul-13 13:00N 50°20' W 001°24'816.0
2017-Jul-13 12:31N 50°14' W 001°32'815.3
2017-Jul-13 12:01N 50°08' W 001°38'816.4
2017-Jul-13 11:30N 50°00' W 001°45'1019.1
2017-Jul-13 11:00N 49°53' W 001°53'1221.6
2017-Jul-13 10:28N 49°43' W 002°04'1520.9
2017-Jul-13 09:43N 49°29' W 002°12'418.8
2017-Jul-13 09:30N 49°25' W 002°15'1119.9
2017-Jul-13 08:58N 49°15' W 002°21'35 3.8
2017-Jul-12 23:35N 49°47' W 001°59'114.6
2017-Jul-12 23:31N 49°48' W 001°57'714.4
2017-Jul-12 23:00N 49°53' W 001°49'714.7
2017-Jul-12 22:31N 49°58' W 001°42'815.0
2017-Jul-12 22:00N 50°05' W 001°37'714.3
2017-Jul-12 21:30N 50°11' W 001°31'815.5
2017-Jul-12 21:00N 50°17' W 001°24'815.9
2017-Jul-12 20:30N 50°24' W 001°17'1716.0
2017-Jul-12 19:26N 50°39' W 001°02'613.4
2017-Jul-12 19:01N 50°44' W 001°04'5 9.4
2017-Jul-12 18:30N 50°49' W 001°06'1 1.0
2017-Jul-12 18:00N 50°49' W 001°06'0 0.0
2017-Jul-12 17:30N 50°49' W 001°06'0 0.0
2017-Jul-12 17:00N 50°49' W 001°06'0 0.0
2017-Jul-12 16:30N 50°49' W 001°06'0 0.0
2017-Jul-12 16:00N 50°49' W 001°06'0 0.0
2017-Jul-12 15:30N 50°49' W 001°06'2 3.4
2017-Jul-12 15:01N 50°47' W 001°06'3613.2
2017-Jul-12 12:15N 50°14' W 001°30'814.5
2017-Jul-12 11:42N 50°08' W 001°39'314.4
2017-Jul-12 11:30N 50°06' W 001°41'714.5
2017-Jul-12 11:00N 49°60' W 001°46'714.9
2017-Jul-12 10:30N 49°53' W 001°52'8 0.7
2017-Jul-11 23:59N 49°48' W 002°00'  

Dump ship's entire track history